sensor_id;sensor_type;location;lat;lon;timestamp;pressure;altitude;pressure_sealevel;temperature;humidity
46506;BME280;32220;49.808;9.968;2023-04-22T00:01:51;98291.31;;;12.61;62.91
46506;BME280;32220;49.808;9.968;2023-04-22T00:04:18;98266.84;;;12.46;64.32
46506;BME280;32220;49.808;9.968;2023-04-22T00:06:46;98294.38;;;12.56;63.24
46506;BME280;32220;49.808;9.968;2023-04-22T00:09:14;98292.66;;;12.55;62.84
46506;BME280;32220;49.808;9.968;2023-04-22T00:11:44;98297.25;;;12.53;62.41
46506;BME280;32220;49.808;9.968;2023-04-22T00:14:11;98281.44;;;12.52;64.13
46506;BME280;32220;49.808;9.968;2023-04-22T00:16:39;98285.91;;;12.51;63.80
46506;BME280;32220;49.808;9.968;2023-04-22T00:19:07;98286.16;;;12.48;63.67
46506;BME280;32220;49.808;9.968;2023-04-22T00:21:34;98270.69;;;12.42;63.37
46506;BME280;32220;49.808;9.968;2023-04-22T00:24:02;98263.94;;;12.38;63.09
46506;BME280;32220;49.808;9.968;2023-04-22T00:26:30;98275.91;;;12.44;63.13
46506;BME280;32220;49.808;9.968;2023-04-22T00:28:59;98271.91;;;12.38;62.85
46506;BME280;32220;49.808;9.968;2023-04-22T00:31:27;98295.78;;;12.49;62.73
46506;BME280;32220;49.808;9.968;2023-04-22T00:33:55;98294.94;;;12.49;62.51
46506;BME280;32220;49.808;9.968;2023-04-22T00:36:26;98289.63;;;12.49;62.48
46506;BME280;32220;49.808;9.968;2023-04-22T00:39:46;98231.34;;;12.25;64.84
46506;BME280;32220;49.808;9.968;2023-04-22T00:42:15;98279.63;;;12.41;63.98
46506;BME280;32220;49.808;9.968;2023-04-22T00:44:45;98279.16;;;12.47;64.02
46506;BME280;32220;49.808;9.968;2023-04-22T00:47:13;98280.47;;;12.42;63.72
46506;BME280;32220;49.808;9.968;2023-04-22T00:49:41;98294.38;;;12.45;63.52
46506;BME280;32220;49.808;9.968;2023-04-22T00:52:09;98283.88;;;12.44;63.09
46506;BME280;32220;49.808;9.968;2023-04-22T00:54:36;98252.84;;;12.22;62.99
46506;BME280;32220;49.808;9.968;2023-04-22T00:57:04;98292.78;;;12.43;63.44
46506;BME280;32220;49.808;9.968;2023-04-22T00:59:32;98280.97;;;12.36;63.29
46506;BME280;32220;49.808;9.968;2023-04-22T01:02:02;98299.91;;;12.42;63.08
46506;BME280;32220;49.808;9.968;2023-04-22T01:04:33;98302.56;;;12.42;62.93
46506;BME280;32220;49.808;9.968;2023-04-22T01:07:01;98282.06;;;12.33;62.85
46506;BME280;32220;49.808;9.968;2023-04-22T01:09:29;98299.19;;;12.40;62.64
46506;BME280;32220;49.808;9.968;2023-04-22T01:11:58;98304.63;;;12.39;62.68
46506;BME280;32220;49.808;9.968;2023-04-22T01:14:26;98296.06;;;12.35;62.97
46506;BME280;32220;49.808;9.968;2023-04-22T01:16:54;98258.88;;;12.13;62.98
46506;BME280;32220;49.808;9.968;2023-04-22T01:19:25;98296.75;;;12.37;62.78
46506;BME280;32220;49.808;9.968;2023-04-22T01:21:55;98267.94;;;12.21;64.94
46506;BME280;32220;49.808;9.968;2023-04-22T01:24:26;98298.00;;;12.33;64.63
46506;BME280;32220;49.808;9.968;2023-04-22T01:26:54;98297.16;;;12.33;64.26
46506;BME280;32220;49.808;9.968;2023-04-22T01:29:22;98285.41;;;12.24;64.42
46506;BME280;32220;49.808;9.968;2023-04-22T01:31:49;98294.59;;;12.31;64.61
46506;BME280;32220;49.808;9.968;2023-04-22T01:34:17;98299.06;;;12.31;64.53
46506;BME280;32220;49.808;9.968;2023-04-22T01:36:44;98279.88;;;12.16;64.46
46506;BME280;32220;49.808;9.968;2023-04-22T01:39:12;98298.22;;;12.30;64.21
46506;BME280;32220;49.808;9.968;2023-04-22T01:41:41;98301.84;;;12.29;63.88
46506;BME280;32220;49.808;9.968;2023-04-22T01:44:09;98302.81;;;12.28;64.10
46506;BME280;32220;49.808;9.968;2023-04-22T01:46:37;98297.59;;;12.27;64.00
46506;BME280;32220;49.808;9.968;2023-04-22T01:49:06;98286.03;;;12.16;64.13
46506;BME280;32220;49.808;9.968;2023-04-22T01:51:33;98304.72;;;12.26;64.12
46506;BME280;32220;49.808;9.968;2023-04-22T01:54:01;98314.63;;;12.24;63.96
46506;BME280;32220;49.808;9.968;2023-04-22T01:56:29;98317.28;;;12.24;63.73
46506;BME280;32220;49.808;9.968;2023-04-22T01:58:58;98300.88;;;12.08;63.70
46506;BME280;32220;49.808;9.968;2023-04-22T02:01:28;98328.25;;;12.19;63.99
46506;BME280;32220;49.808;9.968;2023-04-22T02:03:56;98313.66;;;12.14;63.82
46506;BME280;32220;49.808;9.968;2023-04-22T02:06:23;98320.66;;;12.15;64.49
46506;BME280;32220;49.808;9.968;2023-04-22T02:08:52;98303.53;;;12.08;64.65
46506;BME280;32220;49.808;9.968;2023-04-22T02:11:20;98319.06;;;12.12;64.63
46506;BME280;32220;49.808;9.968;2023-04-22T02:13:48;98308.81;;;12.08;64.35
46506;BME280;32220;49.808;9.968;2023-04-22T02:16:17;98316.56;;;12.11;64.21
46506;BME280;32220;49.808;9.968;2023-04-22T02:18:45;98300.59;;;12.00;64.47
46506;BME280;32220;49.808;9.968;2023-04-22T02:21:12;98316.69;;;12.09;64.35
46506;BME280;32220;49.808;9.968;2023-04-22T02:23:40;98304.38;;;12.08;64.66
46506;BME280;32220;49.808;9.968;2023-04-22T02:26:09;98302.69;;;12.07;64.94
46506;BME280;32220;49.808;9.968;2023-04-22T02:28:36;98296.75;;;12.04;64.71
46506;BME280;32220;49.808;9.968;2023-04-22T02:31:04;98278.38;;;11.90;64.54
46506;BME280;32220;49.808;9.968;2023-04-22T02:33:33;98305.44;;;12.06;64.56
46506;BME280;32220;49.808;9.968;2023-04-22T02:36:01;98310.63;;;12.07;64.45
46506;BME280;32220;49.808;9.968;2023-04-22T02:38:29;98313.28;;;12.07;64.42
46506;BME280;32220;49.808;9.968;2023-04-22T02:40:56;98300.59;;;12.00;64.18
46506;BME280;32220;49.808;9.968;2023-04-22T02:43:24;98313.53;;;12.04;64.35
46506;BME280;32220;49.808;9.968;2023-04-22T02:45:52;98310.00;;;12.04;64.55
46506;BME280;32220;49.808;9.968;2023-04-22T02:48:20;98305.66;;;12.03;64.89
46506;BME280;32220;49.808;9.968;2023-04-22T02:50:49;98313.63;;;12.03;64.86
46506;BME280;32220;49.808;9.968;2023-04-22T02:53:17;98303.00;;;12.03;64.87
46506;BME280;32220;49.808;9.968;2023-04-22T02:55:44;98306.75;;;12.00;64.81
46506;BME280;32220;49.808;9.968;2023-04-22T02:58:12;98280.78;;;11.81;64.61
46506;BME280;32220;49.808;9.968;2023-04-22T03:00:39;98306.16;;;11.97;64.62
46506;BME280;32220;49.808;9.968;2023-04-22T03:03:07;98303.84;;;11.92;64.53
46506;BME280;32220;49.808;9.968;2023-04-22T03:05:35;98309.16;;;11.92;64.60
46506;BME280;32220;49.808;9.968;2023-04-22T03:08:04;98291.63;;;11.78;64.81
46506;BME280;32220;49.808;9.968;2023-04-22T03:10:32;98306.13;;;11.85;64.62
46506;BME280;32220;49.808;9.968;2023-04-22T03:13:00;98278.09;;;11.70;64.65
46506;BME280;32220;49.808;9.968;2023-04-22T03:15:28;98319.41;;;11.85;64.78
46506;BME280;32220;49.808;9.968;2023-04-22T03:17:56;98282.16;;;11.63;64.51
46506;BME280;32220;49.808;9.968;2023-04-22T03:20:23;98314.22;;;11.84;64.42
46506;BME280;32220;49.808;9.968;2023-04-22T03:22:52;98316.03;;;11.83;64.79
46506;BME280;32220;49.808;9.968;2023-04-22T03:25:22;98262.59;;;11.53;64.77
46506;BME280;32220;49.808;9.968;2023-04-22T03:27:53;98311.78;;;11.81;65.00
46506;BME280;32220;49.808;9.968;2023-04-22T03:30:20;98303.22;;;11.77;65.80
46506;BME280;32220;49.808;9.968;2023-04-22T03:32:48;98302.47;;;11.75;65.36
46506;BME280;32220;49.808;9.968;2023-04-22T03:35:20;98300.78;;;11.74;65.47
46506;BME280;32220;49.808;9.968;2023-04-22T03:37:49;98304.16;;;11.76;65.22
46506;BME280;32220;49.808;9.968;2023-04-22T03:40:27;98305.97;;;11.76;65.14
46506;BME280;32220;49.808;9.968;2023-04-22T03:42:55;98292.31;;;11.69;65.42
46506;BME280;32220;49.808;9.968;2023-04-22T03:45:23;98302.47;;;11.75;65.28
46506;BME280;32220;49.808;9.968;2023-04-22T03:48:08;98302.47;;;11.75;65.52
46506;BME280;32220;49.808;9.968;2023-04-22T03:50:41;98301.59;;;11.75;65.16
46506;BME280;32220;49.808;9.968;2023-04-22T03:53:09;98307.88;;;11.74;65.05
46506;BME280;32220;49.808;9.968;2023-04-22T03:55:39;98292.31;;;11.69;65.30
46506;BME280;32220;49.808;9.968;2023-04-22T03:58:07;98301.72;;;11.73;65.35
46506;BME280;32220;49.808;9.968;2023-04-22T04:00:35;98304.38;;;11.73;65.17
46506;BME280;32220;49.808;9.968;2023-04-22T04:03:10;98308.00;;;11.72;65.43
46506;BME280;32220;49.808;9.968;2023-04-22T04:05:38;98298.34;;;11.71;65.27
46506;BME280;32220;49.808;9.968;2023-04-22T04:08:06;98300.16;;;11.71;65.30
46506;BME280;32220;49.808;9.968;2023-04-22T04:10:35;98307.16;;;11.72;65.54
46506;BME280;32220;49.808;9.968;2023-04-22T04:13:04;98304.38;;;11.73;65.21
46506;BME280;32220;49.808;9.968;2023-04-22T04:15:42;98301.00;;;11.71;65.27
46506;BME280;32220;49.808;9.968;2023-04-22T04:18:10;98306.09;;;11.74;65.24
46506;BME280;32220;49.808;9.968;2023-04-22T04:20:38;98302.25;;;11.78;65.51
46506;BME280;32220;49.808;9.968;2023-04-22T04:23:06;98302.97;;;11.80;65.08
46506;BME280;32220;49.808;9.968;2023-04-22T04:25:34;98311.66;;;11.82;65.37
46506;BME280;32220;49.808;9.968;2023-04-22T04:28:09;98307.09;;;11.84;65.16
46506;BME280;32220;49.808;9.968;2023-04-22T04:30:37;98299.72;;;11.77;65.31
46506;BME280;32220;49.808;9.968;2023-04-22T04:33:06;98253.81;;;11.52;65.03
46506;BME280;32220;49.808;9.968;2023-04-22T04:35:37;98264.53;;;11.62;64.99
46506;BME280;32220;49.808;9.968;2023-04-22T04:38:06;98305.66;;;11.92;65.00
46506;BME280;32220;49.808;9.968;2023-04-22T04:40:35;98320.97;;;11.99;65.12
46506;BME280;32220;49.808;9.968;2023-04-22T04:43:24;98317.97;;;12.04;65.20
46506;BME280;32220;49.808;9.968;2023-04-22T04:45:58;98305.06;;;11.99;65.27
46506;BME280;32220;49.808;9.968;2023-04-22T04:48:31;98318.84;;;12.15;65.02
46506;BME280;32220;49.808;9.968;2023-04-22T04:51:05;98325.22;;;12.24;64.97
46506;BME280;32220;49.808;9.968;2023-04-22T04:53:37;98322.84;;;12.32;65.13
46506;BME280;32220;49.808;9.968;2023-04-22T04:56:05;98322.25;;;12.40;64.89
46506;BME280;32220;49.808;9.968;2023-04-22T04:58:35;98325.28;;;12.46;65.04
46506;BME280;32220;49.808;9.968;2023-04-22T05:01:11;98328.41;;;12.51;64.93
46506;BME280;32220;49.808;9.968;2023-04-22T05:03:40;98332.00;;;12.62;64.83
46506;BME280;32220;49.808;9.968;2023-04-22T05:06:08;98328.66;;;12.71;65.36
46506;BME280;32220;49.808;9.968;2023-04-22T05:08:38;98321.13;;;12.76;64.81
46506;BME280;32220;49.808;9.968;2023-04-22T05:11:08;98325.22;;;12.91;64.60
46506;BME280;32220;49.808;9.968;2023-04-22T05:13:38;98333.44;;;13.10;64.67
46506;BME280;32220;49.808;9.968;2023-04-22T05:16:08;98311.31;;;13.10;64.47
46506;BME280;32220;49.808;9.968;2023-04-22T05:18:36;98331.91;;;13.40;64.17
46506;BME280;32220;49.808;9.968;2023-04-22T05:21:08;98337.66;;;13.56;63.74
46506;BME280;32220;49.808;9.968;2023-04-22T05:23:35;98332.75;;;13.72;63.49
46506;BME280;32220;49.808;9.968;2023-04-22T05:26:05;98342.69;;;13.91;63.54
46506;BME280;32220;49.808;9.968;2023-04-22T05:28:34;98334.69;;;14.12;63.56
46506;BME280;32220;49.808;9.968;2023-04-22T05:31:05;98336.50;;;14.32;63.32
46506;BME280;32220;49.808;9.968;2023-04-22T05:33:32;98340.53;;;14.47;63.11
46506;BME280;32220;49.808;9.968;2023-04-22T05:36:00;98319.78;;;14.51;63.10
46506;BME280;32220;49.808;9.968;2023-04-22T05:38:28;98314.50;;;14.60;63.22
46506;BME280;32220;49.808;9.968;2023-04-22T05:40:56;98340.69;;;14.86;62.88
46506;BME280;32220;49.808;9.968;2023-04-22T05:43:24;98302.38;;;14.77;63.09
46506;BME280;32220;49.808;9.968;2023-04-22T05:45:59;98333.59;;;15.05;62.89
46506;BME280;32220;49.808;9.968;2023-04-22T05:48:28;98331.66;;;15.17;63.08
46506;BME280;32220;49.808;9.968;2023-04-22T05:51:00;98320.03;;;15.18;62.90
46506;BME280;32220;49.808;9.968;2023-04-22T05:53:29;98339.97;;;15.33;62.43
46506;BME280;32220;49.808;9.968;2023-04-22T05:55:59;98327.78;;;15.40;62.63
46506;BME280;32220;49.808;9.968;2023-04-22T05:58:27;98336.88;;;15.48;62.08
46506;BME280;32220;49.808;9.968;2023-04-22T06:00:59;98329.59;;;15.50;61.46
46506;BME280;32220;49.808;9.968;2023-04-22T06:03:52;98338.19;;;15.63;61.50
46506;BME280;32220;49.808;9.968;2023-04-22T06:06:20;98330.19;;;15.72;60.84
46506;BME280;32220;49.808;9.968;2023-04-22T06:08:47;98338.22;;;15.82;60.50
46506;BME280;32220;49.808;9.968;2023-04-22T06:11:15;98338.34;;;15.90;59.66
46506;BME280;32220;49.808;9.968;2023-04-22T06:13:42;98333.97;;;15.99;59.21
46506;BME280;32220;49.808;9.968;2023-04-22T06:16:10;98329.06;;;16.04;58.59
46506;BME280;32220;49.808;9.968;2023-04-22T06:18:38;98287.19;;;15.85;58.69
46506;BME280;32220;49.808;9.968;2023-04-22T06:21:11;98337.16;;;16.31;58.61
46506;BME280;32220;49.808;9.968;2023-04-22T06:23:40;98328.66;;;16.45;58.60
46506;BME280;32220;49.808;9.968;2023-04-22T06:26:14;98330.84;;;16.60;57.96
46506;BME280;32220;49.808;9.968;2023-04-22T06:28:45;98330.59;;;16.63;56.99
46506;BME280;32220;49.808;9.968;2023-04-22T06:31:17;98347.13;;;16.85;55.74
46506;BME280;32220;49.808;9.968;2023-04-22T06:33:45;98339.31;;;17.02;56.00
46506;BME280;32220;49.808;9.968;2023-04-22T06:36:14;98350.88;;;17.20;55.18
46506;BME280;32220;49.808;9.968;2023-04-22T06:38:45;98350.47;;;17.42;56.00
46506;BME280;32220;49.808;9.968;2023-04-22T06:41:26;98354.56;;;17.64;55.00
46506;BME280;32220;49.808;9.968;2023-04-22T06:43:58;98362.91;;;17.79;54.00
46506;BME280;32220;49.808;9.968;2023-04-22T06:47:01;98356.09;;;18.02;53.37
46506;BME280;32220;49.808;9.968;2023-04-22T06:49:46;98360.25;;;18.22;52.38
46506;BME280;32220;49.808;9.968;2023-04-22T06:52:27;98362.91;;;18.40;51.45
46506;BME280;32220;49.808;9.968;2023-04-22T06:54:56;98371.63;;;18.60;50.91
46506;BME280;32220;49.808;9.968;2023-04-22T06:57:24;98376.94;;;18.78;50.20
46506;BME280;32220;49.808;9.968;2023-04-22T06:59:52;98383.03;;;18.96;49.50
46506;BME280;32220;49.808;9.968;2023-04-22T07:02:20;98382.31;;;19.20;50.39
46506;BME280;32220;49.808;9.968;2023-04-22T07:04:49;98379.94;;;19.51;49.20
46506;BME280;32220;49.808;9.968;2023-04-22T07:07:16;98385.53;;;19.73;48.41
46506;BME280;32220;49.808;9.968;2023-04-22T07:09:46;98384.72;;;20.05;47.68
46506;BME280;32220;49.808;9.968;2023-04-22T07:12:14;98381.56;;;20.42;47.19
46506;BME280;32220;49.808;9.968;2023-04-22T07:14:42;98384.88;;;20.77;46.37
46506;BME280;32220;49.808;9.968;2023-04-22T07:17:10;98386.47;;;21.02;45.80
46506;BME280;32220;49.808;9.968;2023-04-22T07:19:38;98386.56;;;21.33;46.03
46506;BME280;32220;49.808;9.968;2023-04-22T07:22:06;98403.13;;;21.53;45.05
46506;BME280;32220;49.808;9.968;2023-04-22T07:24:34;98405.66;;;21.55;44.18
46506;BME280;32220;49.808;9.968;2023-04-22T07:27:04;98399.47;;;21.46;44.11
46506;BME280;32220;49.808;9.968;2023-04-22T07:29:31;98397.41;;;21.56;45.01
46506;BME280;32220;49.808;9.968;2023-04-22T07:31:59;98401.44;;;21.52;43.53
46506;BME280;32220;49.808;9.968;2023-04-22T07:34:26;98406.81;;;21.60;43.88
46506;BME280;32220;49.808;9.968;2023-04-22T07:36:54;98401.25;;;21.62;43.50
46506;BME280;32220;49.808;9.968;2023-04-22T07:39:21;98403.78;;;21.63;43.24
46506;BME280;32220;49.808;9.968;2023-04-22T07:41:49;98387.91;;;21.68;43.69
46506;BME280;32220;49.808;9.968;2023-04-22T07:44:19;98390.25;;;21.71;43.30
46506;BME280;32220;49.808;9.968;2023-04-22T07:46:47;98411.22;;;21.84;43.57
46506;BME280;32220;49.808;9.968;2023-04-22T07:49:15;98405.09;;;21.90;43.64
46506;BME280;32220;49.808;9.968;2023-04-22T07:51:43;98405.25;;;21.97;43.87
46506;BME280;32220;49.808;9.968;2023-04-22T07:54:11;98405.53;;;22.10;43.48
46506;BME280;32220;49.808;9.968;2023-04-22T07:56:38;98400.19;;;22.25;43.82
46506;BME280;32220;49.808;9.968;2023-04-22T07:59:06;98398.25;;;22.33;42.80
46506;BME280;32220;49.808;9.968;2023-04-22T08:01:35;98396.72;;;22.53;42.78
46506;BME280;32220;49.808;9.968;2023-04-22T08:04:02;98402.56;;;22.80;42.51
46506;BME280;32220;49.808;9.968;2023-04-22T08:06:30;98352.09;;;22.80;42.36
46506;BME280;32220;49.808;9.968;2023-04-22T08:08:58;98402.03;;;23.28;41.31
46506;BME280;32220;49.808;9.968;2023-04-22T08:11:25;98391.00;;;23.45;41.50
46506;BME280;32220;49.808;9.968;2023-04-22T08:13:53;98400.97;;;23.74;40.57
46506;BME280;32220;49.808;9.968;2023-04-22T08:16:20;98406.22;;;23.96;40.55
46506;BME280;32220;49.808;9.968;2023-04-22T08:18:50;98407.03;;;24.33;39.61
46506;BME280;32220;49.808;9.968;2023-04-22T08:21:18;98403.50;;;24.60;39.00
46506;BME280;32220;49.808;9.968;2023-04-22T08:23:46;98398.81;;;24.97;38.47
46506;BME280;32220;49.808;9.968;2023-04-22T08:26:13;98389.91;;;25.44;38.89
46506;BME280;32220;49.808;9.968;2023-04-22T08:28:42;98418.44;;;25.81;36.67
46506;BME280;32220;49.808;9.968;2023-04-22T08:31:10;98363.75;;;25.71;37.53
46506;BME280;32220;49.808;9.968;2023-04-22T08:33:38;98414.38;;;26.25;36.74
46506;BME280;32220;49.808;9.968;2023-04-22T08:36:08;98409.00;;;26.51;36.35
46506;BME280;32220;49.808;9.968;2023-04-22T08:38:36;98388.91;;;26.85;36.24
46506;BME280;32220;49.808;9.968;2023-04-22T08:41:04;98411.63;;;27.43;34.53
46506;BME280;32220;49.808;9.968;2023-04-22T08:43:32;98413.75;;;27.93;33.54
46506;BME280;32220;49.808;9.968;2023-04-22T08:46:00;98419.59;;;28.34;32.86
46506;BME280;32220;49.808;9.968;2023-04-22T08:48:27;98417.41;;;28.74;32.70
46506;BME280;32220;49.808;9.968;2023-04-22T08:50:55;98423.31;;;29.39;31.85
46506;BME280;32220;49.808;9.968;2023-04-22T08:53:25;98436.66;;;30.02;30.23
46506;BME280;32220;49.808;9.968;2023-04-22T08:55:55;98431.84;;;30.16;29.72
46506;BME280;32220;49.808;9.968;2023-04-22T08:58:23;98432.06;;;30.14;29.98
46506;BME280;32220;49.808;9.968;2023-04-22T09:00:51;98375.69;;;29.72;30.68
46506;BME280;32220;49.808;9.968;2023-04-22T09:03:20;98431.34;;;29.89;30.46
46506;BME280;32220;49.808;9.968;2023-04-22T09:05:50;98427.03;;;29.99;30.68
46506;BME280;32220;49.808;9.968;2023-04-22T09:08:18;98431.00;;;30.15;30.09
46506;BME280;32220;49.808;9.968;2023-04-22T09:10:47;98429.31;;;30.44;29.91
46506;BME280;32220;49.808;9.968;2023-04-22T09:13:15;98424.03;;;30.61;29.16
46506;BME280;32220;49.808;9.968;2023-04-22T09:15:44;98413.28;;;30.48;29.82
46506;BME280;32220;49.808;9.968;2023-04-22T09:18:15;98401.50;;;30.47;29.61
46506;BME280;32220;49.808;9.968;2023-04-22T09:20:43;98409.03;;;30.52;29.68
46506;BME280;32220;49.808;9.968;2023-04-22T09:23:11;98411.81;;;30.33;29.55
46506;BME280;32220;49.808;9.968;2023-04-22T09:29:13;98343.84;;;30.25;29.97
46506;BME280;32220;49.808;9.968;2023-04-22T09:32:08;98346.81;;;30.24;29.37
46506;BME280;32220;49.808;9.968;2023-04-22T09:35:00;98360.47;;;30.24;29.22
46506;BME280;32220;49.808;9.968;2023-04-22T09:37:33;98369.16;;;30.32;29.06
46506;BME280;32220;49.808;9.968;2023-04-22T09:40:23;98351.44;;;30.53;29.71
46506;BME280;32220;49.808;9.968;2023-04-22T09:43:41;98396.25;;;30.64;29.51
46506;BME280;32220;49.808;9.968;2023-04-22T09:46:10;98374.50;;;30.27;29.77
46506;BME280;32220;49.808;9.968;2023-04-22T09:48:41;98406.16;;;30.47;29.31
46506;BME280;32220;49.808;9.968;2023-04-22T09:51:14;98375.69;;;30.31;29.91
46506;BME280;32220;49.808;9.968;2023-04-22T09:53:42;98398.09;;;30.52;29.95
46506;BME280;32220;49.808;9.968;2023-04-22T09:56:10;98373.63;;;30.57;30.26
46506;BME280;32220;49.808;9.968;2023-04-22T09:58:38;98389.22;;;30.91;29.47
46506;BME280;32220;49.808;9.968;2023-04-22T10:01:06;98390.91;;;31.39;29.36
46506;BME280;32220;49.808;9.968;2023-04-22T10:03:35;98395.03;;;31.93;29.04
46506;BME280;32220;49.808;9.968;2023-04-22T10:06:03;98380.41;;;32.78;28.16
46506;BME280;32220;49.808;9.968;2023-04-22T10:08:31;98391.03;;;33.25;27.22
46506;BME280;32220;49.808;9.968;2023-04-22T10:10:59;98410.97;;;32.70;26.85
46506;BME280;32220;49.808;9.968;2023-04-22T10:13:28;98381.06;;;32.52;27.59
46506;BME280;32220;49.808;9.968;2023-04-22T10:15:56;98391.03;;;32.91;27.13
46506;BME280;32220;49.808;9.968;2023-04-22T10:18:25;98391.88;;;32.92;26.27
46506;BME280;32220;49.808;9.968;2023-04-22T10:20:57;98393.69;;;32.69;26.03
46506;BME280;32220;49.808;9.968;2023-04-22T10:23:31;98389.69;;;32.43;26.87
46506;BME280;32220;49.808;9.968;2023-04-22T10:25:59;98383.44;;;32.31;27.12
46506;BME280;32220;49.808;9.968;2023-04-22T10:28:27;98376.66;;;32.34;26.87
46506;BME280;32220;49.808;9.968;2023-04-22T10:30:55;98383.88;;;32.57;26.97
46506;BME280;32220;49.808;9.968;2023-04-22T10:33:37;98395.38;;;33.64;25.55
46506;BME280;32220;49.808;9.968;2023-04-22T10:36:08;98382.31;;;34.20;25.34
46506;BME280;32220;49.808;9.968;2023-04-22T10:38:37;98407.31;;;34.18;24.37
46506;BME280;32220;49.808;9.968;2023-04-22T10:41:06;98390.47;;;33.88;25.34
46506;BME280;32220;49.808;9.968;2023-04-22T10:43:40;98383.44;;;33.53;25.18
46506;BME280;32220;49.808;9.968;2023-04-22T10:49:11;98376.81;;;33.11;25.84
46506;BME280;32220;49.808;9.968;2023-04-22T10:51:43;98367.31;;;33.18;26.31
46506;BME280;32220;49.808;9.968;2023-04-22T10:57:21;98360.66;;;32.76;26.80
46506;BME280;32220;49.808;9.968;2023-04-22T10:59:51;98353.22;;;32.43;26.31
46506;BME280;32220;49.808;9.968;2023-04-22T11:02:20;98354.59;;;32.12;27.02
46506;BME280;32220;49.808;9.968;2023-04-22T11:04:49;98342.28;;;31.98;28.33
46506;BME280;32220;49.808;9.968;2023-04-22T11:07:30;98344.22;;;31.86;27.29
46506;BME280;32220;49.808;9.968;2023-04-22T11:10:01;98351.97;;;31.89;27.25
46506;BME280;32220;49.808;9.968;2023-04-22T11:12:41;98335.59;;;31.94;26.82
46506;BME280;32220;49.808;9.968;2023-04-22T11:15:10;98357.13;;;32.30;26.15
46506;BME280;32220;49.808;9.968;2023-04-22T11:17:41;98347.81;;;32.65;26.09
46506;BME280;32220;49.808;9.968;2023-04-22T11:20:10;98363.28;;;32.71;25.62
46506;BME280;32220;49.808;9.968;2023-04-22T11:22:41;98356.13;;;32.70;26.06
46506;BME280;32220;49.808;9.968;2023-04-22T11:25:09;98352.25;;;32.82;25.08
46506;BME280;32220;49.808;9.968;2023-04-22T11:27:38;98351.72;;;32.69;24.95
46506;BME280;32220;49.808;9.968;2023-04-22T11:30:08;98348.34;;;32.62;25.46
46506;BME280;32220;49.808;9.968;2023-04-22T11:32:38;98335.69;;;32.27;25.47
46506;BME280;32220;49.808;9.968;2023-04-22T11:35:08;98337.31;;;32.11;26.25
46506;BME280;32220;49.808;9.968;2023-04-22T11:37:42;98331.44;;;31.74;25.89
46506;BME280;32220;49.808;9.968;2023-04-22T11:40:12;98341.84;;;31.49;26.39
46506;BME280;32220;49.808;9.968;2023-04-22T11:42:40;98323.91;;;31.30;26.48
46506;BME280;32220;49.808;9.968;2023-04-22T11:45:09;98299.00;;;31.15;25.87
46506;BME280;32220;49.808;9.968;2023-04-22T11:47:37;98338.91;;;31.39;26.46
46506;BME280;32220;49.808;9.968;2023-04-22T11:50:07;98313.69;;;31.37;25.63
46506;BME280;32220;49.808;9.968;2023-04-22T11:52:43;98332.25;;;31.75;25.40
46506;BME280;32220;49.808;9.968;2023-04-22T11:55:11;98330.50;;;32.14;24.69
46506;BME280;32220;49.808;9.968;2023-04-22T11:57:39;98322.63;;;32.68;24.39
46506;BME280;32220;49.808;9.968;2023-04-22T12:00:11;98335.94;;;33.53;23.37
46506;BME280;32220;49.808;9.968;2023-04-22T12:02:39;98347.16;;;34.22;21.61
46506;BME280;32220;49.808;9.968;2023-04-22T12:05:10;98343.50;;;35.17;21.12
46506;BME280;32220;49.808;9.968;2023-04-22T12:07:38;98346.66;;;36.14;19.82
46506;BME280;32220;49.808;9.968;2023-04-22T12:10:09;98342.03;;;36.95;19.52
46506;BME280;32220;49.808;9.968;2023-04-22T12:12:38;98339.28;;;37.75;18.86
46506;BME280;32220;49.808;9.968;2023-04-22T12:15:08;98359.81;;;38.52;18.16
46506;BME280;32220;49.808;9.968;2023-04-22T12:17:36;98354.13;;;38.72;18.39
46506;BME280;32220;49.808;9.968;2023-04-22T12:20:05;98352.19;;;38.34;18.37
46506;BME280;32220;49.808;9.968;2023-04-22T12:22:33;98327.28;;;37.35;18.16
46506;BME280;32220;49.808;9.968;2023-04-22T12:25:01;98335.41;;;36.66;18.79
46506;BME280;32220;49.808;9.968;2023-04-22T12:27:30;98299.75;;;35.88;19.36
46506;BME280;32220;49.808;9.968;2023-04-22T12:29:57;98329.84;;;36.20;19.42
46506;BME280;32220;49.808;9.968;2023-04-22T12:32:25;98324.03;;;36.98;19.72
46506;BME280;32220;49.808;9.968;2023-04-22T12:34:53;98300.59;;;38.19;18.48
46506;BME280;32220;49.808;9.968;2023-04-22T12:37:21;98295.31;;;39.33;18.17
46506;BME280;32220;49.808;9.968;2023-04-22T12:39:49;98329.41;;;40.38;17.11
46506;BME280;32220;49.808;9.968;2023-04-22T12:42:17;98329.41;;;41.30;16.09
46506;BME280;32220;49.808;9.968;2023-04-22T12:44:46;98331.44;;;41.93;16.32
46506;BME280;32220;49.808;9.968;2023-04-22T12:47:13;98345.56;;;42.33;14.98
46506;BME280;32220;49.808;9.968;2023-04-22T12:49:43;98338.16;;;42.28;14.58
46506;BME280;32220;49.808;9.968;2023-04-22T12:52:12;98327.22;;;42.76;15.02
46506;BME280;32220;49.808;9.968;2023-04-22T12:54:39;98322.66;;;43.11;14.73
46506;BME280;32220;49.808;9.968;2023-04-22T12:57:07;98329.72;;;43.09;14.76
46506;BME280;32220;49.808;9.968;2023-04-22T12:59:35;98322.84;;;43.15;14.30
46506;BME280;32220;49.808;9.968;2023-04-22T13:02:04;98312.22;;;42.86;14.65
46506;BME280;32220;49.808;9.968;2023-04-22T13:04:31;98312.47;;;43.07;15.00
46506;BME280;32220;49.808;9.968;2023-04-22T13:06:59;98314.56;;;43.32;14.60
46506;BME280;32220;49.808;9.968;2023-04-22T13:09:26;98309.91;;;43.58;14.85
46506;BME280;32220;49.808;9.968;2023-04-22T13:11:54;98324.38;;;43.60;14.38
46506;BME280;32220;49.808;9.968;2023-04-22T13:14:21;98303.25;;;42.97;13.90
46506;BME280;32220;49.808;9.968;2023-04-22T13:16:49;98310.91;;;42.83;14.25
46506;BME280;32220;49.808;9.968;2023-04-22T13:19:18;98310.38;;;43.12;13.18
46506;BME280;32220;49.808;9.968;2023-04-22T13:21:46;98299.63;;;42.88;14.05
46506;BME280;32220;49.808;9.968;2023-04-22T13:24:13;98295.00;;;43.15;13.65